Pagina principale
METAR-TAF:

METAR-TAF

Aeroporti :

Locarno, Svizzera

Aeroporto di Magadino

latitudine: 46-09-55N, longitudine: 8-52-40E, altezza: 198 m

Osservazione

Il bollettino è stato emesso 55 minuti fa, alle 05:50 UTC
Vento 6 kt da est/nord-est, variando fra nord/nord-est e est
Temperature 17°C
Umidità 59%
Pressione 1007 hPa
Visibilità 10 km o più
Poco nuvoloso ad un'altezza di 6000 ft
Nuvoloso ad un'altezza di 12000 ft

METAR: LSZL 260550Z 07006KT 030V100 9999 FEW060 BKN120 17/09 Q1007 RMK BLU

Ora: 08:45 (06:45 UTC)

Previsione

Il bollettino è stato emesso 1 ora e 20 minuti fa, alle 05:25 UTC
Previsione valida dal 26 alle 06 UTC al 26 alle 15 UTC
Vento 5 kt da est
Visibilità 10 km o più
Poco nuvoloso ad un'altezza di 6000 ft
Nubi sparse ad un'altezza di 9000 ft
Probabilità 40% :
Temporaneamente
dal 26 alle 08 UTC al 26 alle 15 UTC
Vento 15 kt da est con raffiche fino a 25 kt

TAF: LSZL 260525Z 2606/2615 09005KT 9999 FEW060 SCT090 PROB40 TEMPO 2608/2615 09015G25KT

Osservazioni e previsioni meteorologiche di più di 4000 aeroporti (messaggi METAR e TAF).

Le stazioni disponibili sono rappresentate dai dischi gialli e rossi sulla carta.

Puntare il mouse per vedere il nome della stazione.

Clicca sopra per visualizzare le osservazioni e previsioni meteorologiche.

Per cambiare la mappa : fare clic sui pulsanti verdi con una croce nera per ingrandire, il pulsante verde con un trattino per diminuire, o sulla freccia verde per le mappe adiacenti.


METAR-TAF: